sensor_id;sensor_type;location;lat;lon;timestamp;P1;durP1;ratioP1;P2;durP2;ratioP2
5127;SDS011;2582;48.770;9.190;2024-03-17T00:00:43;8.43;;;7.30;;
5127;SDS011;2582;48.770;9.190;2024-03-17T00:03:09;14.67;;;9.13;;
5127;SDS011;2582;48.770;9.190;2024-03-17T00:05:37;9.90;;;7.83;;
5127;SDS011;2582;48.770;9.190;2024-03-17T00:08:03;12.30;;;9.20;;
5127;SDS011;2582;48.770;9.190;2024-03-17T00:10:30;11.87;;;9.13;;
5127;SDS011;2582;48.770;9.190;2024-03-17T00:12:59;11.63;;;8.57;;
5127;SDS011;2582;48.770;9.190;2024-03-17T00:15:26;11.40;;;9.33;;
5127;SDS011;2582;48.770;9.190;2024-03-17T00:17:52;10.20;;;8.87;;
5127;SDS011;2582;48.770;9.190;2024-03-17T00:20:17;10.60;;;8.77;;
5127;SDS011;2582;48.770;9.190;2024-03-17T00:22:47;11.60;;;8.37;;
5127;SDS011;2582;48.770;9.190;2024-03-17T00:25:13;11.20;;;7.93;;
5127;SDS011;2582;48.770;9.190;2024-03-17T00:27:39;10.27;;;7.70;;
5127;SDS011;2582;48.770;9.190;2024-03-17T00:30:08;11.40;;;9.23;;
5127;SDS011;2582;48.770;9.190;2024-03-17T00:32:40;12.40;;;8.60;;
5127;SDS011;2582;48.770;9.190;2024-03-17T00:35:07;10.57;;;9.43;;
5127;SDS011;2582;48.770;9.190;2024-03-17T00:37:34;10.47;;;9.07;;
5127;SDS011;2582;48.770;9.190;2024-03-17T00:40:02;9.43;;;7.70;;
5127;SDS011;2582;48.770;9.190;2024-03-17T00:42:28;11.60;;;9.23;;
5127;SDS011;2582;48.770;9.190;2024-03-17T00:44:55;15.93;;;9.77;;
5127;SDS011;2582;48.770;9.190;2024-03-17T00:47:21;8.47;;;7.67;;
5127;SDS011;2582;48.770;9.190;2024-03-17T00:49:46;11.50;;;8.30;;
5127;SDS011;2582;48.770;9.190;2024-03-17T00:52:15;11.97;;;8.90;;
5127;SDS011;2582;48.770;9.190;2024-03-17T00:54:41;13.13;;;9.70;;
5127;SDS011;2582;48.770;9.190;2024-03-17T00:57:06;10.80;;;8.50;;
5127;SDS011;2582;48.770;9.190;2024-03-17T00:59:32;15.67;;;9.10;;
5127;SDS011;2582;48.770;9.190;2024-03-17T01:01:58;11.13;;;9.67;;
5127;SDS011;2582;48.770;9.190;2024-03-17T01:04:23;14.73;;;10.13;;
5127;SDS011;2582;48.770;9.190;2024-03-17T01:06:49;12.27;;;10.43;;
5127;SDS011;2582;48.770;9.190;2024-03-17T01:09:14;12.47;;;10.57;;
5127;SDS011;2582;48.770;9.190;2024-03-17T01:11:40;11.33;;;9.53;;
5127;SDS011;2582;48.770;9.190;2024-03-17T01:14:05;11.60;;;9.70;;
5127;SDS011;2582;48.770;9.190;2024-03-17T01:16:32;13.90;;;11.00;;
5127;SDS011;2582;48.770;9.190;2024-03-17T01:18:58;12.93;;;10.90;;
5127;SDS011;2582;48.770;9.190;2024-03-17T01:21:24;17.43;;;11.70;;
5127;SDS011;2582;48.770;9.190;2024-03-17T01:23:49;12.50;;;11.20;;
5127;SDS011;2582;48.770;9.190;2024-03-17T01:26:15;12.73;;;9.60;;
5127;SDS011;2582;48.770;9.190;2024-03-17T01:28:40;16.37;;;10.70;;
5127;SDS011;2582;48.770;9.190;2024-03-17T01:31:06;12.43;;;11.07;;
5127;SDS011;2582;48.770;9.190;2024-03-17T01:33:32;13.53;;;11.17;;
5127;SDS011;2582;48.770;9.190;2024-03-17T01:35:57;14.90;;;11.33;;
5127;SDS011;2582;48.770;9.190;2024-03-17T01:38:23;12.00;;;10.43;;
5127;SDS011;2582;48.770;9.190;2024-03-17T01:40:49;14.00;;;10.67;;
5127;SDS011;2582;48.770;9.190;2024-03-17T01:43:14;15.93;;;13.63;;
5127;SDS011;2582;48.770;9.190;2024-03-17T01:45:40;14.63;;;11.50;;
5127;SDS011;2582;48.770;9.190;2024-03-17T01:48:12;14.60;;;10.93;;
5127;SDS011;2582;48.770;9.190;2024-03-17T01:50:40;21.60;;;14.00;;
5127;SDS011;2582;48.770;9.190;2024-03-17T01:53:08;17.27;;;13.20;;
5127;SDS011;2582;48.770;9.190;2024-03-17T01:55:36;18.30;;;14.60;;
5127;SDS011;2582;48.770;9.190;2024-03-17T01:58:03;17.40;;;13.23;;
5127;SDS011;2582;48.770;9.190;2024-03-17T02:00:36;16.07;;;11.77;;
5127;SDS011;2582;48.770;9.190;2024-03-17T02:03:03;15.40;;;12.47;;
5127;SDS011;2582;48.770;9.190;2024-03-17T02:05:30;16.33;;;12.00;;
5127;SDS011;2582;48.770;9.190;2024-03-17T02:07:56;13.83;;;11.30;;
5127;SDS011;2582;48.770;9.190;2024-03-17T02:10:22;16.30;;;12.30;;
5127;SDS011;2582;48.770;9.190;2024-03-17T02:12:48;12.83;;;11.07;;
5127;SDS011;2582;48.770;9.190;2024-03-17T02:15:13;15.20;;;11.70;;
5127;SDS011;2582;48.770;9.190;2024-03-17T02:17:39;13.07;;;11.27;;
5127;SDS011;2582;48.770;9.190;2024-03-17T02:20:05;14.10;;;10.53;;
5127;SDS011;2582;48.770;9.190;2024-03-17T02:22:32;18.80;;;12.87;;
5127;SDS011;2582;48.770;9.190;2024-03-17T02:25:01;14.43;;;12.20;;
5127;SDS011;2582;48.770;9.190;2024-03-17T02:27:27;16.60;;;11.40;;
5127;SDS011;2582;48.770;9.190;2024-03-17T02:29:53;16.83;;;12.00;;
5127;SDS011;2582;48.770;9.190;2024-03-17T02:32:20;13.33;;;11.93;;
5127;SDS011;2582;48.770;9.190;2024-03-17T02:34:47;16.43;;;11.30;;
5127;SDS011;2582;48.770;9.190;2024-03-17T02:37:13;12.93;;;10.90;;
5127;SDS011;2582;48.770;9.190;2024-03-17T02:39:39;15.80;;;11.43;;
5127;SDS011;2582;48.770;9.190;2024-03-17T02:42:05;15.57;;;12.67;;
5127;SDS011;2582;48.770;9.190;2024-03-17T02:44:33;15.50;;;13.07;;
5127;SDS011;2582;48.770;9.190;2024-03-17T02:47:00;13.63;;;11.53;;
5127;SDS011;2582;48.770;9.190;2024-03-17T02:49:27;14.90;;;11.67;;
5127;SDS011;2582;48.770;9.190;2024-03-17T02:52:00;16.50;;;13.07;;
5127;SDS011;2582;48.770;9.190;2024-03-17T02:54:26;12.17;;;10.60;;
5127;SDS011;2582;48.770;9.190;2024-03-17T02:56:51;13.33;;;11.20;;
5127;SDS011;2582;48.770;9.190;2024-03-17T02:59:17;11.73;;;10.40;;
5127;SDS011;2582;48.770;9.190;2024-03-17T03:01:43;13.77;;;11.63;;
5127;SDS011;2582;48.770;9.190;2024-03-17T03:04:09;12.37;;;11.10;;
5127;SDS011;2582;48.770;9.190;2024-03-17T03:06:35;14.60;;;12.00;;
5127;SDS011;2582;48.770;9.190;2024-03-17T03:09:01;14.50;;;11.63;;
5127;SDS011;2582;48.770;9.190;2024-03-17T03:11:26;14.47;;;11.70;;
5127;SDS011;2582;48.770;9.190;2024-03-17T03:13:52;11.17;;;10.03;;
5127;SDS011;2582;48.770;9.190;2024-03-17T03:16:17;12.03;;;10.83;;
5127;SDS011;2582;48.770;9.190;2024-03-17T03:18:43;14.33;;;12.53;;
5127;SDS011;2582;48.770;9.190;2024-03-17T03:21:10;11.30;;;9.47;;
5127;SDS011;2582;48.770;9.190;2024-03-17T03:23:37;14.33;;;10.90;;
5127;SDS011;2582;48.770;9.190;2024-03-17T03:26:03;11.23;;;10.13;;
5127;SDS011;2582;48.770;9.190;2024-03-17T03:28:32;14.17;;;11.97;;
5127;SDS011;2582;48.770;9.190;2024-03-17T03:31:01;11.47;;;10.23;;
5127;SDS011;2582;48.770;9.190;2024-03-17T03:33:27;13.70;;;11.23;;
5127;SDS011;2582;48.770;9.190;2024-03-17T03:35:53;11.50;;;8.60;;
5127;SDS011;2582;48.770;9.190;2024-03-17T03:38:18;11.97;;;10.00;;
5127;SDS011;2582;48.770;9.190;2024-03-17T03:40:44;10.27;;;9.20;;
5127;SDS011;2582;48.770;9.190;2024-03-17T03:43:10;9.77;;;8.80;;
5127;SDS011;2582;48.770;9.190;2024-03-17T03:45:36;11.77;;;9.50;;
5127;SDS011;2582;48.770;9.190;2024-03-17T03:48:02;12.70;;;10.13;;
5127;SDS011;2582;48.770;9.190;2024-03-17T03:50:28;10.40;;;9.30;;
5127;SDS011;2582;48.770;9.190;2024-03-17T03:52:55;12.90;;;10.50;;
5127;SDS011;2582;48.770;9.190;2024-03-17T03:55:20;12.33;;;9.67;;
5127;SDS011;2582;48.770;9.190;2024-03-17T03:57:46;10.20;;;9.10;;
5127;SDS011;2582;48.770;9.190;2024-03-17T04:00:17;11.33;;;10.23;;
5127;SDS011;2582;48.770;9.190;2024-03-17T04:02:47;12.83;;;11.43;;
5127;SDS011;2582;48.770;9.190;2024-03-17T04:05:15;11.00;;;9.90;;
5127;SDS011;2582;48.770;9.190;2024-03-17T04:07:41;10.50;;;9.40;;
5127;SDS011;2582;48.770;9.190;2024-03-17T04:10:08;14.53;;;11.97;;
5127;SDS011;2582;48.770;9.190;2024-03-17T04:12:34;14.77;;;11.37;;
5127;SDS011;2582;48.770;9.190;2024-03-17T04:15:00;10.30;;;9.20;;
5127;SDS011;2582;48.770;9.190;2024-03-17T04:17:26;12.50;;;10.77;;
5127;SDS011;2582;48.770;9.190;2024-03-17T04:19:52;11.13;;;9.73;;
5127;SDS011;2582;48.770;9.190;2024-03-17T04:22:21;12.80;;;10.80;;
5127;SDS011;2582;48.770;9.190;2024-03-17T04:24:49;11.13;;;9.90;;
5127;SDS011;2582;48.770;9.190;2024-03-17T04:27:22;13.07;;;11.20;;
5127;SDS011;2582;48.770;9.190;2024-03-17T04:29:49;14.87;;;11.37;;
5127;SDS011;2582;48.770;9.190;2024-03-17T04:32:18;13.60;;;12.20;;
5127;SDS011;2582;48.770;9.190;2024-03-17T04:34:44;11.33;;;10.13;;
5127;SDS011;2582;48.770;9.190;2024-03-17T04:37:10;10.73;;;9.40;;
5127;SDS011;2582;48.770;9.190;2024-03-17T04:39:37;12.67;;;10.43;;
5127;SDS011;2582;48.770;9.190;2024-03-17T04:42:11;13.17;;;10.60;;
5127;SDS011;2582;48.770;9.190;2024-03-17T04:44:39;13.90;;;12.47;;
5127;SDS011;2582;48.770;9.190;2024-03-17T04:47:05;15.00;;;12.87;;
5127;SDS011;2582;48.770;9.190;2024-03-17T04:49:35;13.77;;;10.00;;
5127;SDS011;2582;48.770;9.190;2024-03-17T04:52:04;13.17;;;11.83;;
5127;SDS011;2582;48.770;9.190;2024-03-17T04:54:31;15.20;;;13.00;;
5127;SDS011;2582;48.770;9.190;2024-03-17T04:56:56;14.60;;;13.10;;
5127;SDS011;2582;48.770;9.190;2024-03-17T04:59:22;11.77;;;10.57;;
5127;SDS011;2582;48.770;9.190;2024-03-17T05:01:48;14.47;;;12.30;;
5127;SDS011;2582;48.770;9.190;2024-03-17T05:04:13;12.90;;;11.57;;
5127;SDS011;2582;48.770;9.190;2024-03-17T05:06:39;14.27;;;12.10;;
5127;SDS011;2582;48.770;9.190;2024-03-17T05:09:07;11.47;;;10.27;;
5127;SDS011;2582;48.770;9.190;2024-03-17T05:11:33;15.10;;;12.00;;
5127;SDS011;2582;48.770;9.190;2024-03-17T05:14:00;15.70;;;13.13;;
5127;SDS011;2582;48.770;9.190;2024-03-17T05:16:26;12.37;;;11.07;;
5127;SDS011;2582;48.770;9.190;2024-03-17T05:18:54;12.87;;;11.47;;
5127;SDS011;2582;48.770;9.190;2024-03-17T05:21:20;16.30;;;14.37;;
5127;SDS011;2582;48.770;9.190;2024-03-17T05:23:47;16.53;;;13.00;;
5127;SDS011;2582;48.770;9.190;2024-03-17T05:26:13;16.70;;;12.87;;
5127;SDS011;2582;48.770;9.190;2024-03-17T05:28:39;15.10;;;12.33;;
5127;SDS011;2582;48.770;9.190;2024-03-17T05:31:05;14.47;;;12.13;;
5127;SDS011;2582;48.770;9.190;2024-03-17T05:33:30;13.43;;;12.10;;
5127;SDS011;2582;48.770;9.190;2024-03-17T05:36:00;14.90;;;12.77;;
5127;SDS011;2582;48.770;9.190;2024-03-17T05:38:27;16.40;;;14.67;;
5127;SDS011;2582;48.770;9.190;2024-03-17T05:40:57;19.67;;;14.93;;
5127;SDS011;2582;48.770;9.190;2024-03-17T05:43:25;19.60;;;14.90;;
5127;SDS011;2582;48.770;9.190;2024-03-17T05:45:54;17.33;;;15.50;;
5127;SDS011;2582;48.770;9.190;2024-03-17T05:48:22;17.40;;;15.60;;
5127;SDS011;2582;48.770;9.190;2024-03-17T05:50:49;20.90;;;17.40;;
5127;SDS011;2582;48.770;9.190;2024-03-17T05:53:16;18.80;;;16.10;;
5127;SDS011;2582;48.770;9.190;2024-03-17T05:55:43;21.63;;;19.50;;
5127;SDS011;2582;48.770;9.190;2024-03-17T05:58:09;20.63;;;18.50;;
5127;SDS011;2582;48.770;9.190;2024-03-17T06:00:36;21.30;;;19.07;;
5127;SDS011;2582;48.770;9.190;2024-03-17T06:03:03;21.80;;;17.63;;
5127;SDS011;2582;48.770;9.190;2024-03-17T06:05:32;20.60;;;18.43;;
5127;SDS011;2582;48.770;9.190;2024-03-17T06:07:59;20.17;;;17.93;;
5127;SDS011;2582;48.770;9.190;2024-03-17T06:10:27;18.50;;;16.57;;
5127;SDS011;2582;48.770;9.190;2024-03-17T06:12:53;20.97;;;18.53;;
5127;SDS011;2582;48.770;9.190;2024-03-17T06:15:18;22.33;;;17.50;;
5127;SDS011;2582;48.770;9.190;2024-03-17T06:17:46;19.03;;;16.67;;
5127;SDS011;2582;48.770;9.190;2024-03-17T06:20:11;18.33;;;16.50;;
5127;SDS011;2582;48.770;9.190;2024-03-17T06:22:38;20.97;;;18.40;;
5127;SDS011;2582;48.770;9.190;2024-03-17T06:25:04;19.10;;;16.13;;
5127;SDS011;2582;48.770;9.190;2024-03-17T06:27:31;20.97;;;18.83;;
5127;SDS011;2582;48.770;9.190;2024-03-17T06:29:58;18.47;;;16.53;;
5127;SDS011;2582;48.770;9.190;2024-03-17T06:32:25;18.43;;;16.47;;
5127;SDS011;2582;48.770;9.190;2024-03-17T06:34:51;19.93;;;17.80;;
5127;SDS011;2582;48.770;9.190;2024-03-17T06:37:16;19.80;;;17.20;;
5127;SDS011;2582;48.770;9.190;2024-03-17T06:39:45;17.57;;;15.77;;
5127;SDS011;2582;48.770;9.190;2024-03-17T06:42:10;21.60;;;19.30;;
5127;SDS011;2582;48.770;9.190;2024-03-17T06:44:36;18.63;;;16.63;;
5127;SDS011;2582;48.770;9.190;2024-03-17T06:47:02;17.97;;;16.07;;
5127;SDS011;2582;48.770;9.190;2024-03-17T06:49:28;17.23;;;15.27;;
5127;SDS011;2582;48.770;9.190;2024-03-17T06:51:53;18.97;;;16.93;;
5127;SDS011;2582;48.770;9.190;2024-03-17T06:54:19;15.00;;;13.40;;
5127;SDS011;2582;48.770;9.190;2024-03-17T06:56:45;15.37;;;13.77;;
5127;SDS011;2582;48.770;9.190;2024-03-17T06:59:10;15.27;;;13.73;;
5127;SDS011;2582;48.770;9.190;2024-03-17T07:01:36;13.53;;;12.13;;
5127;SDS011;2582;48.770;9.190;2024-03-17T07:04:01;14.60;;;13.20;;
5127;SDS011;2582;48.770;9.190;2024-03-17T07:06:27;12.93;;;11.60;;
5127;SDS011;2582;48.770;9.190;2024-03-17T07:08:54;14.73;;;13.23;;
5127;SDS011;2582;48.770;9.190;2024-03-17T07:11:20;15.43;;;12.23;;
5127;SDS011;2582;48.770;9.190;2024-03-17T07:13:48;14.97;;;13.50;;
5127;SDS011;2582;48.770;9.190;2024-03-17T07:16:16;15.60;;;14.00;;
5127;SDS011;2582;48.770;9.190;2024-03-17T07:18:43;18.70;;;16.80;;
5127;SDS011;2582;48.770;9.190;2024-03-17T07:21:09;25.03;;;22.50;;
5127;SDS011;2582;48.770;9.190;2024-03-17T07:23:35;16.23;;;14.63;;
5127;SDS011;2582;48.770;9.190;2024-03-17T07:26:02;38.00;;;34.00;;
5127;SDS011;2582;48.770;9.190;2024-03-17T07:28:29;49.63;;;44.20;;
5127;SDS011;2582;48.770;9.190;2024-03-17T07:30:57;23.93;;;21.43;;
5127;SDS011;2582;48.770;9.190;2024-03-17T07:33:23;15.70;;;14.10;;
5127;SDS011;2582;48.770;9.190;2024-03-17T07:35:53;70.23;;;57.63;;
5127;SDS011;2582;48.770;9.190;2024-03-17T07:38:21;49.80;;;41.87;;
5127;SDS011;2582;48.770;9.190;2024-03-17T07:43:27;17.17;;;15.37;;
5127;SDS011;2582;48.770;9.190;2024-03-17T07:45:57;14.20;;;12.90;;
5127;SDS011;2582;48.770;9.190;2024-03-17T07:48:23;46.97;;;42.03;;
5127;SDS011;2582;48.770;9.190;2024-03-17T07:50:58;28.27;;;25.27;;
5127;SDS011;2582;48.770;9.190;2024-03-17T07:53:26;29.77;;;26.87;;
5127;SDS011;2582;48.770;9.190;2024-03-17T07:55:58;14.30;;;12.80;;
5127;SDS011;2582;48.770;9.190;2024-03-17T07:58:31;41.43;;;34.90;;
5127;SDS011;2582;48.770;9.190;2024-03-17T08:00:58;24.27;;;21.97;;
5127;SDS011;2582;48.770;9.190;2024-03-17T08:03:26;17.77;;;16.17;;
5127;SDS011;2582;48.770;9.190;2024-03-17T08:05:52;13.83;;;12.50;;
5127;SDS011;2582;48.770;9.190;2024-03-17T08:08:18;22.83;;;20.73;;
5127;SDS011;2582;48.770;9.190;2024-03-17T08:10:44;13.00;;;11.70;;
5127;SDS011;2582;48.770;9.190;2024-03-17T08:13:13;14.20;;;12.80;;
5127;SDS011;2582;48.770;9.190;2024-03-17T08:15:41;17.37;;;15.40;;
5127;SDS011;2582;48.770;9.190;2024-03-17T08:18:08;27.03;;;24.13;;
5127;SDS011;2582;48.770;9.190;2024-03-17T08:20:40;12.83;;;11.63;;
5127;SDS011;2582;48.770;9.190;2024-03-17T08:23:11;16.40;;;14.70;;
5127;SDS011;2582;48.770;9.190;2024-03-17T08:25:37;13.10;;;11.87;;
5127;SDS011;2582;48.770;9.190;2024-03-17T08:28:03;14.17;;;12.87;;
5127;SDS011;2582;48.770;9.190;2024-03-17T08:30:29;13.80;;;12.43;;
5127;SDS011;2582;48.770;9.190;2024-03-17T08:32:57;13.60;;;12.30;;
5127;SDS011;2582;48.770;9.190;2024-03-17T08:35:23;12.90;;;11.70;;
5127;SDS011;2582;48.770;9.190;2024-03-17T08:37:49;19.30;;;17.27;;
5127;SDS011;2582;48.770;9.190;2024-03-17T08:40:16;14.30;;;12.90;;
5127;SDS011;2582;48.770;9.190;2024-03-17T08:42:42;12.47;;;11.27;;
5127;SDS011;2582;48.770;9.190;2024-03-17T08:45:09;12.67;;;11.47;;
5127;SDS011;2582;48.770;9.190;2024-03-17T08:47:36;14.33;;;12.73;;
5127;SDS011;2582;48.770;9.190;2024-03-17T08:50:01;11.83;;;10.73;;
5127;SDS011;2582;48.770;9.190;2024-03-17T08:52:29;12.20;;;11.07;;
5127;SDS011;2582;48.770;9.190;2024-03-17T08:54:58;12.33;;;11.00;;
5127;SDS011;2582;48.770;9.190;2024-03-17T08:57:24;13.80;;;9.83;;
5127;SDS011;2582;48.770;9.190;2024-03-17T08:59:50;12.27;;;11.07;;
5127;SDS011;2582;48.770;9.190;2024-03-17T09:02:19;11.33;;;10.23;;
5127;SDS011;2582;48.770;9.190;2024-03-17T09:04:46;10.23;;;9.30;;
5127;SDS011;2582;48.770;9.190;2024-03-17T09:07:14;10.67;;;9.67;;
5127;SDS011;2582;48.770;9.190;2024-03-17T09:09:43;11.47;;;10.47;;
5127;SDS011;2582;48.770;9.190;2024-03-17T09:12:11;9.97;;;8.93;;
5127;SDS011;2582;48.770;9.190;2024-03-17T09:14:37;9.13;;;8.20;;
5127;SDS011;2582;48.770;9.190;2024-03-17T09:17:03;9.97;;;8.97;;
5127;SDS011;2582;48.770;9.190;2024-03-17T09:19:28;9.00;;;8.10;;
5127;SDS011;2582;48.770;9.190;2024-03-17T09:21:54;10.70;;;9.07;;
5127;SDS011;2582;48.770;9.190;2024-03-17T09:24:22;9.40;;;8.53;;
5127;SDS011;2582;48.770;9.190;2024-03-17T09:26:48;10.70;;;9.70;;
5127;SDS011;2582;48.770;9.190;2024-03-17T09:29:13;9.10;;;8.20;;
5127;SDS011;2582;48.770;9.190;2024-03-17T09:31:42;9.30;;;8.30;;
5127;SDS011;2582;48.770;9.190;2024-03-17T09:34:08;8.77;;;7.90;;
5127;SDS011;2582;48.770;9.190;2024-03-17T09:36:34;9.83;;;7.63;;
5127;SDS011;2582;48.770;9.190;2024-03-17T09:39:00;7.43;;;6.70;;
5127;SDS011;2582;48.770;9.190;2024-03-17T09:41:29;8.67;;;7.80;;
5127;SDS011;2582;48.770;9.190;2024-03-17T09:43:55;7.10;;;6.40;;
5127;SDS011;2582;48.770;9.190;2024-03-17T09:46:22;6.90;;;6.20;;
5127;SDS011;2582;48.770;9.190;2024-03-17T09:48:49;6.60;;;6.00;;
5127;SDS011;2582;48.770;9.190;2024-03-17T09:51:19;6.27;;;5.67;;
5127;SDS011;2582;48.770;9.190;2024-03-17T09:53:46;6.60;;;5.60;;
5127;SDS011;2582;48.770;9.190;2024-03-17T09:56:15;7.80;;;5.70;;
5127;SDS011;2582;48.770;9.190;2024-03-17T09:58:46;7.60;;;5.53;;
5127;SDS011;2582;48.770;9.190;2024-03-17T10:01:15;7.10;;;5.03;;
5127;SDS011;2582;48.770;9.190;2024-03-17T10:06:14;6.43;;;4.67;;
5127;SDS011;2582;48.770;9.190;2024-03-17T10:08:50;4.60;;;4.20;;
5127;SDS011;2582;48.770;9.190;2024-03-17T10:11:19;4.33;;;3.93;;
5127;SDS011;2582;48.770;9.190;2024-03-17T10:14:08;6.00;;;3.90;;
5127;SDS011;2582;48.770;9.190;2024-03-17T10:16:34;4.20;;;3.07;;
5127;SDS011;2582;48.770;9.190;2024-03-17T10:19:08;4.00;;;3.60;;
5127;SDS011;2582;48.770;9.190;2024-03-17T10:21:36;4.20;;;3.70;;
5127;SDS011;2582;48.770;9.190;2024-03-17T10:24:06;5.30;;;3.90;;
5127;SDS011;2582;48.770;9.190;2024-03-17T10:26:55;5.13;;;3.10;;
5127;SDS011;2582;48.770;9.190;2024-03-17T10:29:30;4.80;;;3.90;;
5127;SDS011;2582;48.770;9.190;2024-03-17T10:31:57;4.70;;;4.20;;
5127;SDS011;2582;48.770;9.190;2024-03-17T10:34:44;4.70;;;3.90;;
5127;SDS011;2582;48.770;9.190;2024-03-17T10:37:10;5.87;;;4.50;;
5127;SDS011;2582;48.770;9.190;2024-03-17T10:39:40;4.67;;;3.77;;
5127;SDS011;2582;48.770;9.190;2024-03-17T10:42:07;3.37;;;3.07;;
5127;SDS011;2582;48.770;9.190;2024-03-17T10:44:35;3.63;;;3.30;;
5127;SDS011;2582;48.770;9.190;2024-03-17T10:47:02;5.20;;;3.73;;
5127;SDS011;2582;48.770;9.190;2024-03-17T10:49:34;5.30;;;4.33;;
5127;SDS011;2582;48.770;9.190;2024-03-17T10:52:01;5.60;;;3.93;;
5127;SDS011;2582;48.770;9.190;2024-03-17T10:54:29;6.20;;;4.00;;
5127;SDS011;2582;48.770;9.190;2024-03-17T10:56:56;3.00;;;2.77;;
5127;SDS011;2582;48.770;9.190;2024-03-17T10:59:40;4.77;;;4.10;;
5127;SDS011;2582;48.770;9.190;2024-03-17T11:02:21;5.13;;;4.30;;
5127;SDS011;2582;48.770;9.190;2024-03-17T11:04:52;4.13;;;3.73;;
5127;SDS011;2582;48.770;9.190;2024-03-17T11:07:20;4.23;;;3.10;;
5127;SDS011;2582;48.770;9.190;2024-03-17T11:09:47;4.33;;;3.47;;
5127;SDS011;2582;48.770;9.190;2024-03-17T11:12:58;6.00;;;3.67;;
5127;SDS011;2582;48.770;9.190;2024-03-17T11:17:49;3.90;;;3.50;;
5127;SDS011;2582;48.770;9.190;2024-03-17T11:22:49;4.60;;;4.10;;
5127;SDS011;2582;48.770;9.190;2024-03-17T11:27:51;3.60;;;3.30;;
5127;SDS011;2582;48.770;9.190;2024-03-17T11:33:27;6.50;;;4.70;;
5127;SDS011;2582;48.770;9.190;2024-03-17T11:41:30;4.80;;;3.70;;
5127;SDS011;2582;48.770;9.190;2024-03-17T11:46:54;4.20;;;3.43;;
5127;SDS011;2582;48.770;9.190;2024-03-17T11:51:51;5.07;;;3.00;;
5127;SDS011;2582;48.770;9.190;2024-03-17T11:54:21;4.30;;;3.10;;
5127;SDS011;2582;48.770;9.190;2024-03-17T11:56:49;5.17;;;4.67;;
5127;SDS011;2582;48.770;9.190;2024-03-17T11:59:20;4.30;;;4.00;;
5127;SDS011;2582;48.770;9.190;2024-03-17T12:01:47;4.70;;;4.27;;
5127;SDS011;2582;48.770;9.190;2024-03-17T12:04:14;4.23;;;3.90;;
5127;SDS011;2582;48.770;9.190;2024-03-17T12:06:44;5.33;;;4.40;;
5127;SDS011;2582;48.770;9.190;2024-03-17T12:11:58;5.00;;;4.10;;
5127;SDS011;2582;48.770;9.190;2024-03-17T12:14:24;5.17;;;4.70;;
5127;SDS011;2582;48.770;9.190;2024-03-17T12:17:00;5.63;;;5.13;;
5127;SDS011;2582;48.770;9.190;2024-03-17T12:19:27;5.23;;;4.73;;
5127;SDS011;2582;48.770;9.190;2024-03-17T12:21:53;6.50;;;4.60;;
5127;SDS011;2582;48.770;9.190;2024-03-17T12:24:20;6.20;;;4.73;;
5127;SDS011;2582;48.770;9.190;2024-03-17T12:26:48;4.83;;;4.40;;
5127;SDS011;2582;48.770;9.190;2024-03-17T12:29:28;5.43;;;4.93;;
5127;SDS011;2582;48.770;9.190;2024-03-17T12:32:01;4.97;;;4.50;;
5127;SDS011;2582;48.770;9.190;2024-03-17T12:34:33;6.40;;;5.30;;
5127;SDS011;2582;48.770;9.190;2024-03-17T12:36:59;5.87;;;4.80;;
5127;SDS011;2582;48.770;9.190;2024-03-17T12:39:29;6.73;;;4.90;;
5127;SDS011;2582;48.770;9.190;2024-03-17T12:44:38;5.20;;;4.70;;
5127;SDS011;2582;48.770;9.190;2024-03-17T12:47:17;5.67;;;4.70;;
5127;SDS011;2582;48.770;9.190;2024-03-17T12:49:53;5.27;;;4.77;;
5127;SDS011;2582;48.770;9.190;2024-03-17T12:54:58;5.20;;;4.70;;
5127;SDS011;2582;48.770;9.190;2024-03-17T12:57:45;4.70;;;4.30;;
5127;SDS011;2582;48.770;9.190;2024-03-17T13:00:31;5.20;;;4.37;;
5127;SDS011;2582;48.770;9.190;2024-03-17T13:02:57;5.23;;;4.60;;
5127;SDS011;2582;48.770;9.190;2024-03-17T13:05:26;5.30;;;4.80;;
5127;SDS011;2582;48.770;9.190;2024-03-17T13:07:52;6.10;;;4.17;;
5127;SDS011;2582;48.770;9.190;2024-03-17T13:10:22;5.63;;;5.10;;
5127;SDS011;2582;48.770;9.190;2024-03-17T13:12:57;4.93;;;4.50;;
5127;SDS011;2582;48.770;9.190;2024-03-17T13:15:33;4.73;;;4.33;;
5127;SDS011;2582;48.770;9.190;2024-03-17T13:18:00;4.77;;;4.30;;
5127;SDS011;2582;48.770;9.190;2024-03-17T13:20:27;6.70;;;4.10;;
5127;SDS011;2582;48.770;9.190;2024-03-17T13:22:53;4.67;;;4.20;;
5127;SDS011;2582;48.770;9.190;2024-03-17T13:25:19;4.37;;;3.97;;
5127;SDS011;2582;48.770;9.190;2024-03-17T13:27:48;7.53;;;4.60;;
5127;SDS011;2582;48.770;9.190;2024-03-17T13:30:14;5.27;;;4.70;;
5127;SDS011;2582;48.770;9.190;2024-03-17T13:32:41;4.90;;;4.40;;
5127;SDS011;2582;48.770;9.190;2024-03-17T13:35:19;4.40;;;3.40;;
5127;SDS011;2582;48.770;9.190;2024-03-17T13:37:45;4.87;;;4.03;;
5127;SDS011;2582;48.770;9.190;2024-03-17T13:40:12;4.30;;;3.90;;
5127;SDS011;2582;48.770;9.190;2024-03-17T13:42:41;4.70;;;4.30;;
5127;SDS011;2582;48.770;9.190;2024-03-17T13:45:09;5.00;;;4.60;;
5127;SDS011;2582;48.770;9.190;2024-03-17T13:47:36;4.50;;;4.03;;
5127;SDS011;2582;48.770;9.190;2024-03-17T13:50:02;5.30;;;4.10;;
5127;SDS011;2582;48.770;9.190;2024-03-17T13:52:31;5.27;;;4.33;;
5127;SDS011;2582;48.770;9.190;2024-03-17T13:54:57;4.17;;;3.77;;
5127;SDS011;2582;48.770;9.190;2024-03-17T13:57:24;4.37;;;3.97;;
5127;SDS011;2582;48.770;9.190;2024-03-17T13:59:50;3.73;;;3.40;;
5127;SDS011;2582;48.770;9.190;2024-03-17T14:02:17;4.23;;;3.77;;
5127;SDS011;2582;48.770;9.190;2024-03-17T14:04:43;4.70;;;3.10;;
5127;SDS011;2582;48.770;9.190;2024-03-17T14:07:09;3.63;;;3.33;;
5127;SDS011;2582;48.770;9.190;2024-03-17T14:09:34;3.40;;;3.10;;
5127;SDS011;2582;48.770;9.190;2024-03-17T14:12:00;5.23;;;2.80;;
5127;SDS011;2582;48.770;9.190;2024-03-17T14:14:26;4.27;;;3.87;;
5127;SDS011;2582;48.770;9.190;2024-03-17T14:16:51;4.73;;;3.90;;
5127;SDS011;2582;48.770;9.190;2024-03-17T14:19:18;6.27;;;4.07;;
5127;SDS011;2582;48.770;9.190;2024-03-17T14:21:44;5.47;;;4.30;;
5127;SDS011;2582;48.770;9.190;2024-03-17T14:24:09;4.63;;;4.07;;
5127;SDS011;2582;48.770;9.190;2024-03-17T14:26:35;4.30;;;3.90;;
5127;SDS011;2582;48.770;9.190;2024-03-17T14:29:01;4.30;;;3.90;;
5127;SDS011;2582;48.770;9.190;2024-03-17T14:31:33;3.97;;;3.20;;
5127;SDS011;2582;48.770;9.190;2024-03-17T14:34:02;3.30;;;3.00;;
5127;SDS011;2582;48.770;9.190;2024-03-17T14:36:30;3.63;;;3.33;;
5127;SDS011;2582;48.770;9.190;2024-03-17T14:38:57;4.33;;;3.53;;
5127;SDS011;2582;48.770;9.190;2024-03-17T14:41:29;6.13;;;3.60;;
5127;SDS011;2582;48.770;9.190;2024-03-17T14:43:56;3.80;;;3.50;;
5127;SDS011;2582;48.770;9.190;2024-03-17T14:46:37;4.37;;;3.00;;
5127;SDS011;2582;48.770;9.190;2024-03-17T14:49:02;4.50;;;2.70;;
5127;SDS011;2582;48.770;9.190;2024-03-17T14:51:29;3.80;;;3.10;;
5127;SDS011;2582;48.770;9.190;2024-03-17T14:53:55;3.43;;;3.13;;
5127;SDS011;2582;48.770;9.190;2024-03-17T14:56:21;2.70;;;2.50;;
5127;SDS011;2582;48.770;9.190;2024-03-17T14:58:47;3.37;;;2.57;;
5127;SDS011;2582;48.770;9.190;2024-03-17T15:01:12;5.60;;;2.70;;
5127;SDS011;2582;48.770;9.190;2024-03-17T15:03:38;5.10;;;2.77;;
5127;SDS011;2582;48.770;9.190;2024-03-17T15:06:13;3.03;;;2.83;;
5127;SDS011;2582;48.770;9.190;2024-03-17T15:08:40;3.70;;;3.20;;
5127;SDS011;2582;48.770;9.190;2024-03-17T15:11:06;3.07;;;2.40;;
5127;SDS011;2582;48.770;9.190;2024-03-17T15:13:35;3.77;;;2.80;;
5127;SDS011;2582;48.770;9.190;2024-03-17T15:16:02;4.70;;;2.63;;
5127;SDS011;2582;48.770;9.190;2024-03-17T15:18:34;4.70;;;2.80;;
5127;SDS011;2582;48.770;9.190;2024-03-17T15:21:00;4.97;;;3.30;;
5127;SDS011;2582;48.770;9.190;2024-03-17T15:23:26;8.30;;;2.70;;
5127;SDS011;2582;48.770;9.190;2024-03-17T15:26:04;3.80;;;3.00;;
5127;SDS011;2582;48.770;9.190;2024-03-17T15:28:34;3.33;;;3.03;;
5127;SDS011;2582;48.770;9.190;2024-03-17T15:31:02;3.40;;;2.97;;
5127;SDS011;2582;48.770;9.190;2024-03-17T15:33:28;3.60;;;3.20;;
5127;SDS011;2582;48.770;9.190;2024-03-17T15:35:54;2.77;;;2.40;;
5127;SDS011;2582;48.770;9.190;2024-03-17T15:38:19;4.00;;;3.27;;